Time;durP1;ratioP1;P1;durP2;ratioP2;P2;SDS_P1;SDS_P2;PMS_P1;PMS_P2;Temp;Humidity;BMP_temperature;BMP_pressure;BME280_temperature;BME280_humidity;BME280_pressure;Samples;Min_cycle;Max_cycle;Signal;HPM_P1;HPM_P2
2021/09/18 00:02:23;;;;;;;4.57;1.47;;;13.80;99.90;;;;;;5050927;28;20209;-84
2021/09/18 00:04:49;;;;;;;2.27;1.57;;;13.90;99.90;;;;;;5067178;28;20209;-84
2021/09/18 00:07:15;;;;;;;2.93;1.77;;;13.90;99.90;;;;;;5063619;28;20225;-83
2021/09/18 00:09:41;;;;;;;4.40;2.70;;;14.00;99.90;;;;;;5066579;28;20181;-84
2021/09/18 00:12:07;;;;;;;1.67;1.57;;;14.10;99.90;;;;;;5034229;28;20203;-83
2021/09/18 00:14:33;;;;;;;2.37;1.80;;;14.10;99.90;;;;;;5059037;28;20209;-83
2021/09/18 00:16:59;;;;;;;3.33;2.17;;;14.10;99.90;;;;;;5049273;28;20225;-83
2021/09/18 00:19:25;;;;;;;5.60;2.27;;;14.10;99.90;;;;;;5064238;28;20236;-84
2021/09/18 00:21:51;;;;;;;2.73;1.90;;;14.10;99.90;;;;;;5049098;28;20197;-83
2021/09/18 00:24:16;;;;;;;4.00;2.43;;;14.10;99.90;;;;;;5032677;28;20186;-86
2021/09/18 00:26:42;;;;;;;2.87;1.77;;;14.10;99.90;;;;;;5065593;28;20225;-83
2021/09/18 00:29:08;;;;;;;1.37;1.27;;;14.10;99.90;;;;;;5064582;28;20209;-85
2021/09/18 00:31:34;;;;;;;7.17;2.10;;;14.20;99.90;;;;;;5048659;28;21187;-83
2021/09/18 00:34:00;;;;;;;2.60;1.63;;;14.30;99.90;;;;;;5048655;28;20747;-85
2021/09/18 00:36:26;;;;;;;3.50;2.00;;;14.30;99.90;;;;;;5032377;28;20204;-85
2021/09/18 00:38:51;;;;;;;6.13;1.70;;;14.30;99.90;;;;;;5066084;28;20354;-83
2021/09/18 00:41:18;;;;;;;6.37;2.33;;;14.30;99.90;;;;;;5031035;28;20296;-83
2021/09/18 00:43:52;;;;;;;2.57;1.83;;;14.30;99.90;;;;;;5048474;28;20217;-85
2021/09/18 00:46:18;;;;;;;3.40;2.63;;;14.30;99.90;;;;;;5042555;28;20235;-82
2021/09/18 00:48:45;;;;;;;2.57;1.63;;;14.30;99.90;;;;;;5064986;28;20208;-83
2021/09/18 00:51:11;;;;;;;2.90;1.83;;;14.30;99.90;;;;;;5066393;28;20181;-83
2021/09/18 00:53:37;;;;;;;2.20;2.00;;;14.30;99.90;;;;;;5048265;28;20221;-84
2021/09/18 00:56:04;;;;;;;4.07;2.07;;;14.30;99.90;;;;;;5047971;28;21128;-85
2021/09/18 00:58:30;;;;;;;6.60;2.27;;;14.30;99.90;;;;;;5048201;28;20221;-83
2021/09/18 01:00:56;;;;;;;2.10;1.63;;;14.30;99.90;;;;;;5048306;28;20213;-81
2021/09/18 01:03:22;;;;;;;3.13;1.60;;;14.30;99.90;;;;;;5064370;28;20600;-84
2021/09/18 01:05:48;;;;;;;2.83;2.23;;;14.30;99.90;;;;;;5065846;28;20217;-82
2021/09/18 01:08:13;;;;;;;2.70;1.80;;;14.20;99.90;;;;;;5063478;28;20732;-88
2021/09/18 01:10:39;;;;;;;2.60;1.90;;;14.20;99.90;;;;;;5048222;28;20213;-84
2021/09/18 01:13:06;;;;;;;2.10;1.67;;;14.20;99.90;;;;;;5031328;28;20568;-84
2021/09/18 01:15:35;;;;;;;2.57;1.60;;;14.10;99.90;;;;;;5062417;28;20263;-85
2021/09/18 01:18:03;;;;;;;2.13;1.40;;;14.00;99.90;;;;;;5063781;28;20177;-84
2021/09/18 01:20:30;;;;;;;5.07;1.40;;;13.80;99.90;;;;;;5058071;28;20206;-82
2021/09/18 01:22:58;;;;;;;1.27;1.10;;;13.60;99.90;;;;;;5039618;28;20209;-82
2021/09/18 01:25:27;;;;;;;2.63;1.67;;;13.40;99.90;;;;;;5064274;28;20684;-82
2021/09/18 01:27:53;;;;;;;1.53;1.20;;;13.30;99.90;;;;;;5081552;28;20290;-85
2021/09/18 01:30:25;;;;;;;1.67;1.30;;;13.30;99.90;;;;;;5065127;28;20220;-85
2021/09/18 01:32:52;;;;;;;1.70;1.60;;;13.40;99.90;;;;;;5045273;28;20689;-83
2021/09/18 01:35:19;;;;;;;2.50;1.90;;;13.40;99.90;;;;;;5027415;28;20670;-82
2021/09/18 01:37:47;;;;;;;2.67;1.90;;;13.40;99.90;;;;;;5044997;28;20234;-84
2021/09/18 01:40:18;;;;;;;1.87;1.57;;;13.50;99.90;;;;;;5027593;28;20237;-84
2021/09/18 01:42:45;;;;;;;1.80;1.50;;;13.50;99.90;;;;;;5027441;28;20256;-84
2021/09/18 01:45:11;;;;;;;1.80;1.43;;;13.60;99.90;;;;;;5027257;28;20200;-83
2021/09/18 01:47:48;;;;;;;1.83;1.60;;;13.60;99.90;;;;;;5042386;28;20225;-83
2021/09/18 01:50:24;;;;;;;1.90;1.40;;;13.60;99.90;;;;;;5036017;28;20569;-87
2021/09/18 01:52:52;;;;;;;2.27;1.77;;;13.70;99.90;;;;;;5041825;28;20208;-83
2021/09/18 01:55:18;;;;;;;5.40;1.80;;;13.70;99.90;;;;;;5043319;28;20240;-85
2021/09/18 01:57:46;;;;;;;1.70;1.30;;;13.70;99.90;;;;;;5041489;28;20200;-86
2021/09/18 02:00:14;;;;;;;1.73;1.40;;;13.80;99.90;;;;;;5037376;28;20182;-84
2021/09/18 02:02:40;;;;;;;2.73;1.67;;;13.80;99.90;;;;;;5027172;28;20240;-84
2021/09/18 02:05:07;;;;;;;7.53;1.60;;;13.80;99.90;;;;;;5043830;28;20226;-85
2021/09/18 02:07:32;;;;;;;4.10;1.30;;;13.80;99.90;;;;;;5026564;28;20226;-84
2021/09/18 02:09:58;;;;;;;1.70;1.37;;;13.80;99.90;;;;;;5026957;28;20217;-84
2021/09/18 02:12:24;;;;;;;1.57;1.47;;;13.80;99.90;;;;;;5022560;28;20186;-84
2021/09/18 02:14:50;;;;;;;2.23;1.77;;;13.80;99.90;;;;;;5044802;28;20224;-82
2021/09/18 02:17:15;;;;;;;2.03;1.30;;;13.80;99.90;;;;;;5045937;28;20308;-85
2021/09/18 02:19:41;;;;;;;3.27;1.97;;;13.80;99.90;;;;;;5062589;28;20213;-84
2021/09/18 02:22:07;;;;;;;1.67;1.47;;;13.70;99.90;;;;;;5062893;28;20554;-84
2021/09/18 02:24:33;;;;;;;3.10;1.73;;;13.70;99.90;;;;;;5062097;28;20203;-82
2021/09/18 02:26:59;;;;;;;1.87;1.70;;;13.60;99.90;;;;;;5064231;28;20229;-82
2021/09/18 02:29:24;;;;;;;4.70;2.80;;;13.50;99.90;;;;;;5046003;28;20971;-87
2021/09/18 02:31:50;;;;;;;2.97;1.20;;;13.40;99.90;;;;;;5045772;28;20219;-81
2021/09/18 02:34:16;;;;;;;2.13;1.80;;;13.40;99.90;;;;;;5061834;28;20674;-87
2021/09/18 02:36:42;;;;;;;2.47;1.70;;;13.30;99.90;;;;;;5045523;28;20246;-83
2021/09/18 02:39:08;;;;;;;3.83;2.57;;;13.30;99.90;;;;;;5030821;28;20708;-83
2021/09/18 02:41:34;;;;;;;2.97;1.80;;;13.20;99.90;;;;;;5063319;28;20332;-84
2021/09/18 02:43:59;;;;;;;1.80;1.70;;;13.20;99.90;;;;;;5049813;28;20221;-84
2021/09/18 02:46:26;;;;;;;2.13;1.60;;;13.20;99.90;;;;;;5049985;28;20225;-82
2021/09/18 02:48:51;;;;;;;1.60;1.50;;;13.10;99.90;;;;;;5067590;28;20212;-85
2021/09/18 02:51:18;;;;;;;1.40;1.20;;;13.10;99.90;;;;;;5060254;28;20204;-84
2021/09/18 02:53:44;;;;;;;4.27;2.13;;;13.00;99.90;;;;;;5050118;28;20217;-82
2021/09/18 02:56:10;;;;;;;1.67;1.37;;;13.00;99.90;;;;;;5067721;28;20220;-82
2021/09/18 02:58:36;;;;;;;2.03;1.53;;;13.00;99.90;;;;;;5045925;28;21077;-82
2021/09/18 03:01:02;;;;;;;1.57;1.23;;;13.00;99.90;;;;;;5050419;28;20248;-84
2021/09/18 03:03:28;;;;;;;2.53;1.97;;;13.00;99.90;;;;;;5033610;28;20186;-84
2021/09/18 03:05:54;;;;;;;2.90;1.20;;;12.90;99.90;;;;;;5033595;28;21037;-82
2021/09/18 03:08:20;;;;;;;1.73;1.63;;;12.80;99.90;;;;;;5033703;28;20216;-83
2021/09/18 03:10:46;;;;;;;2.07;1.87;;;12.80;99.90;;;;;;5026286;28;20231;-83
2021/09/18 03:13:12;;;;;;;2.20;1.40;;;12.70;99.90;;;;;;5067612;28;20748;-84
2021/09/18 03:15:37;;;;;;;1.50;1.13;;;12.70;99.90;;;;;;5033544;28;20251;-84
2021/09/18 03:18:03;;;;;;;2.10;1.30;;;12.70;99.90;;;;;;5083794;28;20200;-83
2021/09/18 03:20:29;;;;;;;7.90;2.07;;;12.60;99.90;;;;;;5031806;28;20222;-85
2021/09/18 03:22:55;;;;;;;2.70;1.47;;;12.60;99.90;;;;;;5038271;28;20222;-84
2021/09/18 03:25:21;;;;;;;2.07;1.23;;;12.60;99.90;;;;;;5029969;28;20237;-85
2021/09/18 03:27:46;;;;;;;1.83;1.43;;;12.60;99.90;;;;;;5046924;28;20658;-82
2021/09/18 03:30:12;;;;;;;2.23;1.70;;;12.50;99.90;;;;;;5030681;28;20228;-83
2021/09/18 03:32:38;;;;;;;1.63;1.13;;;12.50;99.90;;;;;;5022902;28;20213;-84
2021/09/18 03:35:05;;;;;;;3.87;1.50;;;12.40;99.90;;;;;;5028691;28;20222;-83
2021/09/18 03:37:34;;;;;;;2.83;1.47;;;12.30;99.90;;;;;;5037519;28;21181;-84
2021/09/18 03:40:01;;;;;;;1.90;1.30;;;12.20;99.90;;;;;;5065631;28;20686;-83
2021/09/18 03:42:27;;;;;;;1.33;1.10;;;11.90;99.90;;;;;;5067733;28;20200;-85
2021/09/18 03:44:52;;;;;;;2.40;1.90;;;11.80;99.90;;;;;;5033047;28;20564;-83
2021/09/18 03:47:18;;;;;;;1.70;1.43;;;11.90;99.90;;;;;;5032666;28;20316;-86
2021/09/18 03:49:44;;;;;;;2.33;2.13;;;11.80;99.90;;;;;;5032951;28;20232;-82
2021/09/18 03:52:10;;;;;;;2.03;1.77;;;11.70;99.90;;;;;;5049403;28;20221;-83
2021/09/18 03:54:35;;;;;;;2.27;1.53;;;11.70;99.90;;;;;;5065323;28;20234;-84
2021/09/18 03:57:01;;;;;;;2.10;1.70;;;11.60;99.90;;;;;;5049639;28;20224;-86
2021/09/18 03:59:27;;;;;;;2.30;1.90;;;11.60;99.90;;;;;;5049172;28;20217;-84
2021/09/18 04:01:53;;;;;;;4.83;1.80;;;11.40;99.90;;;;;;5049322;28;20244;-84
2021/09/18 04:04:19;;;;;;;2.23;1.80;;;11.40;99.90;;;;;;5047032;28;20308;-84
2021/09/18 04:06:44;;;;;;;1.97;1.57;;;11.40;99.90;;;;;;5032620;28;20184;-85
2021/09/18 04:09:10;;;;;;;3.40;1.87;;;11.40;99.90;;;;;;5033491;28;20708;-83
2021/09/18 04:11:36;;;;;;;2.70;1.47;;;11.40;99.90;;;;;;5048670;28;20292;-83
2021/09/18 04:14:02;;;;;;;2.60;1.70;;;11.40;99.90;;;;;;5048605;28;20217;-84
2021/09/18 04:16:27;;;;;;;2.27;1.77;;;11.50;99.90;;;;;;5060988;28;20241;-85
2021/09/18 04:18:53;;;;;;;1.40;1.30;;;11.50;99.90;;;;;;5049199;28;20312;-83
2021/09/18 04:21:19;;;;;;;7.50;2.30;;;11.50;99.90;;;;;;5033345;28;20193;-83
2021/09/18 04:23:45;;;;;;;2.47;2.00;;;11.50;99.90;;;;;;5048832;28;20689;-82
2021/09/18 04:26:11;;;;;;;3.00;2.20;;;11.60;99.90;;;;;;5035189;28;20546;-84
2021/09/18 04:28:37;;;;;;;1.60;1.50;;;11.60;99.90;;;;;;5054559;28;20302;-82
2021/09/18 04:31:03;;;;;;;2.60;2.07;;;11.60;99.90;;;;;;5065757;28;20221;-82
2021/09/18 04:33:29;;;;;;;4.17;3.33;;;11.60;99.90;;;;;;5059870;28;20555;-82
2021/09/18 04:35:55;;;;;;;3.13;2.03;;;11.60;99.90;;;;;;5031924;28;20217;-83
2021/09/18 04:38:21;;;;;;;3.80;1.97;;;11.50;99.90;;;;;;5032321;28;20225;-84
2021/09/18 04:40:46;;;;;;;3.20;2.40;;;11.50;99.90;;;;;;5048390;28;20229;-84
2021/09/18 04:43:12;;;;;;;1.63;1.27;;;11.50;99.90;;;;;;5047930;28;20225;-84
2021/09/18 04:45:38;;;;;;;1.80;1.63;;;11.40;99.90;;;;;;5046932;28;20225;-84
2021/09/18 04:48:04;;;;;;;2.27;1.80;;;11.40;99.90;;;;;;5048361;28;20307;-82
2021/09/18 04:50:30;;;;;;;2.80;2.37;;;11.30;99.90;;;;;;5061868;28;20225;-83
2021/09/18 04:52:55;;;;;;;2.30;1.93;;;11.30;99.90;;;;;;5064710;28;20308;-83
2021/09/18 04:55:21;;;;;;;2.03;1.63;;;11.30;99.90;;;;;;5031080;28;20884;-83
2021/09/18 04:57:47;;;;;;;2.10;1.90;;;11.20;99.90;;;;;;5031877;28;20194;-84
2021/09/18 05:00:13;;;;;;;3.57;1.70;;;11.10;99.90;;;;;;5032141;28;20657;-84
2021/09/18 05:02:39;;;;;;;2.60;1.93;;;11.20;99.90;;;;;;5063394;28;20773;-84
2021/09/18 05:05:06;;;;;;;2.93;2.07;;;11.10;99.90;;;;;;5061296;28;20225;-84
2021/09/18 05:07:32;;;;;;;2.63;1.93;;;11.10;99.90;;;;;;5061567;28;20245;-86
2021/09/18 05:09:58;;;;;;;2.10;1.63;;;11.10;99.90;;;;;;5027397;28;20294;-86
2021/09/18 05:12:23;;;;;;;1.90;1.40;;;11.00;99.90;;;;;;5045366;28;21074;-86
2021/09/18 05:14:49;;;;;;;2.93;1.67;;;11.00;99.90;;;;;;5030838;28;20367;-82
2021/09/18 05:17:15;;;;;;;3.73;2.40;;;10.90;99.90;;;;;;5047715;28;20797;-85
2021/09/18 05:19:41;;;;;;;1.77;1.63;;;11.00;99.90;;;;;;5081659;28;20221;-85
2021/09/18 05:22:07;;;;;;;2.90;2.00;;;10.90;99.90;;;;;;5064187;28;20665;-85
2021/09/18 05:24:33;;;;;;;3.10;1.63;;;10.70;99.90;;;;;;5063995;28;20189;-85
2021/09/18 05:26:59;;;;;;;3.43;2.10;;;10.60;99.90;;;;;;5031592;28;20220;-84
2021/09/18 05:29:25;;;;;;;3.33;2.27;;;10.60;99.90;;;;;;5059753;28;20755;-85
2021/09/18 05:31:51;;;;;;;2.33;1.57;;;10.60;99.90;;;;;;5064727;28;20244;-84
2021/09/18 05:34:17;;;;;;;2.13;1.70;;;10.70;99.90;;;;;;5063757;28;20225;-83
2021/09/18 05:36:43;;;;;;;8.40;2.73;;;11.00;99.90;;;;;;5046633;28;20189;-84
2021/09/18 05:39:09;;;;;;;1.97;1.50;;;11.20;99.90;;;;;;5031216;28;20528;-83
2021/09/18 05:41:34;;;;;;;2.93;2.50;;;11.50;99.90;;;;;;5046464;28;20225;-83
2021/09/18 05:44:00;;;;;;;3.43;2.27;;;11.80;99.90;;;;;;5062837;28;20225;-84
2021/09/18 05:46:26;;;;;;;3.80;2.73;;;12.10;99.90;;;;;;5043145;28;20245;-85
2021/09/18 05:48:52;;;;;;;2.33;2.13;;;12.20;99.90;;;;;;5041300;28;20686;-84
2021/09/18 05:51:17;;;;;;;1.50;1.40;;;12.10;99.90;;;;;;5026358;28;20201;-83
2021/09/18 05:53:43;;;;;;;3.93;2.03;;;12.40;99.90;;;;;;5058246;28;20249;-86
2021/09/18 05:56:09;;;;;;;3.70;2.43;;;12.70;99.90;;;;;;5044858;28;20304;-86
2021/09/18 05:58:35;;;;;;;2.83;2.00;;;12.40;99.90;;;;;;5044791;28;20229;-83
2021/09/18 06:01:01;;;;;;;2.40;2.03;;;12.30;99.90;;;;;;5046142;28;20233;-85
2021/09/18 06:03:27;;;;;;;2.23;2.00;;;12.40;99.90;;;;;;5063728;28;20177;-84
2021/09/18 06:05:53;;;;;;;3.60;2.70;;;12.40;99.90;;;;;;5045620;28;20652;-84
2021/09/18 06:08:19;;;;;;;2.57;1.80;;;12.10;99.90;;;;;;5046349;28;20233;-83
2021/09/18 06:10:44;;;;;;;2.10;1.57;;;12.10;99.90;;;;;;5046635;28;20231;-85
2021/09/18 06:13:10;;;;;;;2.43;2.20;;;12.20;99.90;;;;;;5038486;28;20232;-84
2021/09/18 06:15:36;;;;;;;1.87;1.70;;;12.10;99.90;;;;;;5045697;28;20670;-83
2021/09/18 06:18:02;;;;;;;3.07;2.43;;;12.30;99.90;;;;;;5029751;28;20196;-84
2021/09/18 06:20:28;;;;;;;2.97;2.10;;;12.30;99.90;;;;;;5046076;28;20216;-84
2021/09/18 06:22:53;;;;;;;2.67;2.23;;;12.40;99.90;;;;;;5045743;28;20213;-82
2021/09/18 06:25:19;;;;;;;2.30;1.83;;;12.70;99.90;;;;;;5046427;28;20221;-84
2021/09/18 06:27:45;;;;;;;2.47;1.97;;;12.60;99.90;;;;;;5044975;28;20267;-84
2021/09/18 06:30:11;;;;;;;5.70;2.43;;;12.70;99.90;;;;;;5029799;28;20197;-82
2021/09/18 06:32:37;;;;;;;6.73;2.60;;;13.20;99.90;;;;;;5054867;28;20225;-84
2021/09/18 06:35:04;;;;;;;3.10;2.57;;;14.20;99.90;;;;;;5064872;28;20209;-80
2021/09/18 06:37:29;;;;;;;2.93;2.00;;;15.20;99.90;;;;;;5055740;28;20224;-84
2021/09/18 06:39:55;;;;;;;2.73;2.07;;;16.20;99.90;;;;;;5063987;28;20228;-82
2021/09/18 06:42:21;;;;;;;2.97;2.07;;;16.50;99.90;;;;;;5047453;28;20260;-84
2021/09/18 06:44:46;;;;;;;1.97;1.70;;;16.80;99.90;;;;;;5046236;28;20569;-83
2021/09/18 06:47:12;;;;;;;2.00;1.47;;;17.70;99.90;;;;;;5043257;28;20228;-83
2021/09/18 06:49:38;;;;;;;2.63;1.97;;;18.10;99.90;;;;;;5062247;28;20320;-84
2021/09/18 06:52:05;;;;;;;1.87;1.60;;;18.50;99.90;;;;;;5045312;28;20316;-84
2021/09/18 06:54:31;;;;;;;1.90;1.50;;;19.40;99.90;;;;;;5061561;28;20181;-83
2021/09/18 06:56:57;;;;;;;3.33;1.40;;;20.10;99.90;;;;;;5046409;28;20284;-82
2021/09/18 06:59:22;;;;;;;1.97;1.87;;;21.10;99.90;;;;;;5061969;28;20248;-83
2021/09/18 07:01:48;;;;;;;2.23;1.77;;;20.30;99.90;;;;;;5055445;28;20927;-83
2021/09/18 07:04:14;;;;;;;2.17;1.33;;;19.80;99.90;;;;;;5046164;28;20734;-85
2021/09/18 07:06:40;;;;;;;2.47;1.43;;;19.00;99.90;;;;;;5060634;28;20193;-86
2021/09/18 07:09:06;;;;;;;1.40;1.30;;;18.70;99.90;;;;;;5062290;28;20197;-81
2021/09/18 07:11:31;;;;;;;1.80;1.37;;;18.80;99.90;;;;;;5062056;28;20216;-83
2021/09/18 07:13:57;;;;;;;1.33;1.20;;;20.10;99.90;;;;;;5030853;28;20205;-84
2021/09/18 07:16:23;;;;;;;4.27;1.37;;;21.00;99.90;;;;;;5030891;28;20572;-82
2021/09/18 07:18:48;;;;;;;1.90;1.80;;;21.80;99.90;;;;;;5046832;28;20186;-85
2021/09/18 07:21:14;;;;;;;2.20;1.30;;;21.90;99.90;;;;;;5045891;28;20225;-84
2021/09/18 07:23:40;;;;;;;1.27;1.00;;;21.10;99.90;;;;;;5054844;28;20224;-88
2021/09/18 07:26:06;;;;;;;1.83;1.40;;;21.00;99.90;;;;;;5030161;28;20233;-81
2021/09/18 07:28:34;;;;;;;2.13;1.40;;;21.30;99.90;;;;;;5063808;28;20233;-82
2021/09/18 07:31:00;;;;;;;2.03;1.10;;;22.40;99.90;;;;;;5066517;28;20244;-88
2021/09/18 07:33:26;;;;;;;2.57;0.97;;;21.80;99.90;;;;;;5065472;28;20537;-82
2021/09/18 07:35:52;;;;;;;1.20;1.10;;;21.40;99.90;;;;;;5065577;28;20217;-83
2021/09/18 07:38:18;;;;;;;2.10;1.40;;;20.90;99.90;;;;;;5049495;28;20209;-84
2021/09/18 07:40:43;;;;;;;1.47;1.37;;;20.20;99.90;;;;;;5049413;28;20732;-85
2021/09/18 07:43:09;;;;;;;2.70;1.20;;;20.10;99.90;;;;;;5065986;28;20737;-86
2021/09/18 07:45:35;;;;;;;1.23;1.13;;;20.40;99.90;;;;;;5049188;28;20324;-83
2021/09/18 07:48:01;;;;;;;2.57;1.10;;;20.20;99.90;;;;;;5049696;28;20222;-84
2021/09/18 07:50:26;;;;;;;1.07;1.00;;;20.40;99.90;;;;;;5049675;28;20290;-82
2021/09/18 07:52:52;;;;;;;1.50;1.00;;;20.70;99.90;;;;;;5065764;28;20704;-83
2021/09/18 07:55:19;;;;;;;1.10;1.00;;;20.20;99.90;;;;;;5032936;28;20684;-84
2021/09/18 07:57:44;;;;;;;2.67;1.27;;;19.40;99.90;;;;;;5032205;28;20308;-86
2021/09/18 08:00:10;;;;;;;0.80;0.80;;;19.80;99.90;;;;;;5033521;28;20285;-87
2021/09/18 08:02:36;;;;;;;1.33;1.07;;;19.90;99.90;;;;;;5032595;28;20235;-85
2021/09/18 08:05:02;;;;;;;1.63;1.00;;;19.80;99.90;;;;;;5032284;28;20919;-85
2021/09/18 08:07:29;;;;;;;1.00;0.77;;;19.40;99.90;;;;;;5066099;28;20220;-80
2021/09/18 08:09:56;;;;;;;1.07;1.00;;;19.50;99.90;;;;;;5064504;28;20224;-83
2021/09/18 08:12:26;;;;;;;1.00;0.90;;;19.70;99.90;;;;;;5048639;28;20268;-82
2021/09/18 08:14:52;;;;;;;1.10;0.70;;;20.10;99.90;;;;;;5048837;28;20435;-80
2021/09/18 08:17:18;;;;;;;1.87;0.80;;;20.10;99.90;;;;;;5065449;28;21260;-81
2021/09/18 08:19:44;;;;;;;2.83;0.83;;;20.30;99.90;;;;;;5064043;28;20587;-83
2021/09/18 08:22:10;;;;;;;1.13;0.80;;;20.60;99.90;;;;;;5031418;28;20221;-84
2021/09/18 08:24:35;;;;;;;1.10;1.00;;;19.80;99.90;;;;;;5047738;28;20229;-84
2021/09/18 08:27:01;;;;;;;0.80;0.80;;;19.90;99.90;;;;;;5064177;28;20245;-85
2021/09/18 08:29:27;;;;;;;0.87;0.70;;;20.80;99.90;;;;;;5061453;28;20206;-83
2021/09/18 08:31:53;;;;;;;2.43;0.90;;;21.20;99.90;;;;;;5047950;28;20213;-82
2021/09/18 08:34:18;;;;;;;2.63;0.90;;;21.10;99.90;;;;;;5064070;28;20217;-82
2021/09/18 08:36:44;;;;;;;0.70;0.70;;;20.30;99.90;;;;;;5047376;28;20208;-82
2021/09/18 08:39:10;;;;;;;0.60;0.60;;;20.60;99.90;;;;;;5066596;28;20642;-83
2021/09/18 08:41:36;;;;;;;1.97;0.87;;;20.40;99.90;;;;;;5030899;28;20292;-81
2021/09/18 08:44:01;;;;;;;2.47;0.80;;;20.00;99.90;;;;;;5048101;28;20221;-80
2021/09/18 08:46:29;;;;;;;1.70;1.23;;;20.20;99.90;;;;;;5063729;28;20241;-81
2021/09/18 08:48:56;;;;;;;1.60;0.80;;;20.50;99.90;;;;;;5065034;28;20225;-80
2021/09/18 08:51:23;;;;;;;0.93;0.93;;;21.00;99.90;;;;;;5048201;28;20196;-82
2021/09/18 08:53:49;;;;;;;2.17;0.93;;;20.80;99.90;;;;;;5064491;28;20220;-80
2021/09/18 08:56:16;;;;;;;2.90;1.10;;;20.70;99.90;;;;;;5061649;28;20209;-82
2021/09/18 08:58:42;;;;;;;1.23;0.90;;;20.80;99.90;;;;;;5046307;28;20265;-83
2021/09/18 09:01:12;;;;;;;0.90;0.90;;;20.80;99.90;;;;;;5045754;28;20822;-85
2021/09/18 09:03:38;;;;;;;2.57;1.60;;;20.90;99.90;;;;;;5060963;28;20183;-84
2021/09/18 09:06:14;;;;;;;2.70;1.40;;;20.90;99.90;;;;;;5064304;28;20201;-82
2021/09/18 09:08:53;;;;;;;3.43;1.50;;;20.40;99.90;;;;;;5065040;28;20343;-86
2021/09/18 09:11:23;;;;;;;1.90;1.73;;;20.00;99.90;;;;;;5064396;28;20225;-85
2021/09/18 09:14:02;;;;;;;8.20;1.43;;;20.00;99.90;;;;;;5063961;28;20233;-83
2021/09/18 09:16:31;;;;;;;2.33;1.53;;;19.90;99.90;;;;;;5065935;28;20990;-84
2021/09/18 09:18:57;;;;;;;2.03;1.30;;;19.70;99.90;;;;;;5048339;28;20221;-86
2021/09/18 09:21:27;;;;;;;1.53;1.30;;;19.90;99.90;;;;;;5064778;28;20194;-83
2021/09/18 09:24:25;;;;;;;2.70;1.53;;;20.20;99.90;;;;;;5057074;28;20398;-81
2021/09/18 09:27:14;;;;;;;3.67;1.87;;;20.20;99.90;;;;;;5046278;28;20327;-82
2021/09/18 09:29:43;;;;;;;4.27;1.50;;;20.50;99.90;;;;;;5062209;28;20236;-82
2021/09/18 09:32:30;;;;;;;1.97;1.43;;;21.40;99.90;;;;;;5063450;28;20243;-82
2021/09/18 09:34:58;;;;;;;3.43;1.70;;;22.10;99.90;;;;;;5062567;28;20228;-82
2021/09/18 09:37:24;;;;;;;3.00;2.00;;;22.20;99.90;;;;;;5040136;28;20366;-81
2021/09/18 09:40:02;;;;;;;2.43;1.77;;;21.90;99.90;;;;;;5062965;28;20188;-85
2021/09/18 09:42:31;;;;;;;2.93;1.80;;;21.90;99.90;;;;;;5063952;28;20173;-84
2021/09/18 09:45:18;;;;;;;2.97;1.40;;;22.60;99.90;;;;;;5063134;28;20355;-80
2021/09/18 09:47:45;;;;;;;1.53;1.30;;;22.70;99.90;;;;;;5058253;28;20221;-83
2021/09/18 09:50:13;;;;;;;1.52;1.30;;;22.90;99.90;;;;;;5056507;28;20213;-86
2021/09/18 09:52:42;;;;;;;1.52;1.23;;;22.30;99.90;;;;;;5063939;28;20657;-86
2021/09/18 09:55:17;;;;;;;3.65;1.52;;;22.00;99.90;;;;;;5062916;28;20335;-87
2021/09/18 09:57:56;;;;;;;5.65;1.70;;;22.20;99.90;;;;;;5063580;28;20272;-84
2021/09/18 10:00:22;;;;;;;3.83;2.33;;;21.80;99.90;;;;;;5047625;28;20192;-84
2021/09/18 10:02:47;;;;;;;3.20;1.90;;;22.50;99.90;;;;;;5057955;28;20213;-86
2021/09/18 10:05:15;;;;;;;2.63;1.83;;;21.90;99.90;;;;;;5062227;28;20212;-81
2021/09/18 10:07:41;;;;;;;4.45;1.63;;;22.50;99.90;;;;;;5063691;28;20233;-84
2021/09/18 10:10:09;;;;;;;2.03;1.75;;;22.40;99.90;;;;;;5062105;28;20690;-82
2021/09/18 10:12:36;;;;;;;4.32;2.83;;;21.60;99.90;;;;;;5044358;28;20196;-83
2021/09/18 10:15:05;;;;;;;3.95;2.17;;;21.30;99.90;;;;;;5046895;28;20201;-81
2021/09/18 10:17:38;;;;;;;5.72;2.33;;;21.40;99.90;;;;;;5063856;28;20262;-81
2021/09/18 10:23:15;;;;;;;3.20;2.45;;;22.40;99.90;;;;;;5044096;28;21165;-84
2021/09/18 10:25:45;;;;;;;2.72;2.40;;;22.70;99.90;;;;;;5064385;28;20212;-81
2021/09/18 10:28:41;;;;;;;3.33;2.25;;;22.00;99.90;;;;;;5063570;28;20316;-80
2021/09/18 10:31:21;;;;;;;4.72;2.15;;;23.10;99.90;;;;;;5062992;28;20736;-80
2021/09/18 10:33:49;;;;;;;5.18;3.00;;;23.80;99.90;;;;;;5056939;28;20219;-82
2021/09/18 10:36:42;;;;;;;5.07;3.92;;;23.50;99.90;;;;;;5060459;28;20185;-80
2021/09/18 10:39:10;;;;;;;2.45;1.70;;;22.50;99.90;;;;;;5059217;28;20232;-82
2021/09/18 10:41:41;;;;;;;3.83;2.22;;;22.40;99.90;;;;;;5063863;28;20854;-83
2021/09/18 10:44:08;;;;;;;2.88;2.13;;;22.20;99.90;;;;;;5063344;28;20227;-81
2021/09/18 10:46:54;;;;;;;5.28;2.65;;;22.50;99.90;;;;;;5046387;28;20699;-81
2021/09/18 10:49:33;;;;;;;3.63;2.65;;;22.80;99.90;;;;;;5063765;28;20227;-83
2021/09/18 10:52:17;;;;;;;3.90;2.20;;;23.00;99.90;;;;;;5062826;28;21195;-85
2021/09/18 10:55:01;;;;;;;4.75;2.50;;;23.50;99.90;;;;;;5063914;28;20196;-82
2021/09/18 10:57:36;;;;;;;4.00;2.70;;;23.60;99.90;;;;;;5055366;28;20193;-81
2021/09/18 11:00:12;;;;;;;3.05;1.98;;;23.30;99.90;;;;;;5043435;28;20227;-81
2021/09/18 11:02:45;;;;;;;5.70;3.33;;;23.40;99.90;;;;;;5034220;28;20263;-85
2021/09/18 11:05:36;;;;;;;4.55;2.80;;;23.30;99.90;;;;;;5057829;28;20248;-84
2021/09/18 11:08:14;;;;;;;3.13;2.53;;;23.20;99.90;;;;;;5061519;28;20240;-84
2021/09/18 11:10:43;;;;;;;4.30;2.78;;;22.90;99.90;;;;;;5046666;28;20797;-84
2021/09/18 11:13:11;;;;;;;5.22;3.22;;;21.90;99.90;;;;;;5041484;28;20221;-86
2021/09/18 11:15:38;;;;;;;4.03;2.70;;;21.70;99.90;;;;;;5045163;28;20928;-87
2021/09/18 11:18:40;;;;;;;4.25;3.03;;;22.10;99.90;;;;;;5037341;28;20231;-82
2021/09/18 11:21:27;;;;;;;5.15;2.92;;;21.90;99.90;;;;;;5063025;28;20218;-86
2021/09/18 11:24:21;;;;;;;4.03;3.03;;;21.60;99.90;;;;;;5045840;28;20221;-85
2021/09/18 11:26:48;;;;;;;4.53;3.38;;;21.50;99.90;;;;;;5047109;28;20773;-81
2021/09/18 11:29:28;;;;;;;8.10;3.78;;;21.50;99.90;;;;;;5046259;28;20229;-81
2021/09/18 11:32:05;;;;;;;5.30;3.55;;;21.50;99.90;;;;;;5045809;28;20241;-84
2021/09/18 11:34:46;;;;;;;5.88;3.92;;;21.30;99.90;;;;;;5045982;28;21082;-85
2021/09/18 11:37:39;;;;;;;7.68;4.20;;;21.60;99.90;;;;;;5046238;28;20214;-81
2021/09/18 11:40:09;;;;;;;5.97;3.55;;;21.50;99.90;;;;;;5047282;28;20389;-80
2021/09/18 11:42:43;;;;;;;6.25;4.38;;;21.60;99.90;;;;;;5046920;28;20189;-85
2021/09/18 11:45:19;;;;;;;9.85;4.00;;;21.20;99.90;;;;;;5047801;28;20178;-84
2021/09/18 11:47:53;;;;;;;6.95;4.07;;;21.00;99.90;;;;;;5046527;28;21206;-84
2021/09/18 11:50:29;;;;;;;7.45;4.07;;;21.50;99.90;;;;;;5037412;28;20217;-82
2021/09/18 11:52:57;;;;;;;5.70;3.90;;;21.70;99.90;;;;;;5045420;28;20225;-82
2021/09/18 11:55:38;;;;;;;4.60;3.78;;;21.90;99.90;;;;;;5038983;28;20282;-82
2021/09/18 11:58:17;;;;;;;3.58;2.60;;;22.00;99.90;;;;;;5045733;28;20218;-82
2021/09/18 12:00:56;;;;;;;5.45;2.75;;;21.90;99.90;;;;;;5046001;28;20986;-83
2021/09/18 12:03:43;;;;;;;6.22;3.58;;;21.80;99.90;;;;;;5047865;28;20182;-83
2021/09/18 12:06:12;;;;;;;4.60;3.30;;;21.30;99.90;;;;;;5079435;28;20320;-83
2021/09/18 12:08:39;;;;;;;5.25;3.00;;;21.30;99.90;;;;;;5029634;28;20226;-82
2021/09/18 12:11:08;;;;;;;3.95;3.00;;;21.00;99.90;;;;;;5028839;28;20221;-83
2021/09/18 12:13:35;;;;;;;5.20;3.15;;;20.70;99.90;;;;;;5046378;28;20218;-83
2021/09/18 12:16:03;;;;;;;5.53;3.50;;;20.70;99.90;;;;;;5038368;28;20236;-84
2021/09/18 12:18:37;;;;;;;5.83;3.57;;;20.60;99.90;;;;;;5028013;28;20694;-83
2021/09/18 12:21:23;;;;;;;4.53;2.60;;;20.70;99.90;;;;;;5042770;28;20214;-83
2021/09/18 12:23:58;;;;;;;5.33;3.30;;;20.70;99.90;;;;;;5042278;28;20283;-84
2021/09/18 12:26:27;;;;;;;5.30;3.03;;;20.50;99.90;;;;;;5042832;28;20216;-85
2021/09/18 12:29:11;;;;;;;5.17;3.20;;;20.50;99.90;;;;;;5043502;28;20694;-80
2021/09/18 12:31:37;;;;;;;4.53;2.77;;;20.60;99.90;;;;;;5046018;28;20681;-80
2021/09/18 12:34:07;;;;;;;3.90;3.23;;;20.60;99.90;;;;;;5059946;28;20300;-81
2021/09/18 12:36:33;;;;;;;4.47;3.23;;;20.60;99.90;;;;;;5044279;28;20206;-82
2021/09/18 12:38:59;;;;;;;5.00;3.10;;;20.70;99.90;;;;;;5041727;28;20186;-82
2021/09/18 12:41:30;;;;;;;4.70;2.63;;;20.60;99.90;;;;;;5025228;28;20682;-84
2021/09/18 12:44:04;;;;;;;6.63;3.63;;;20.50;99.90;;;;;;5043772;28;20214;-82
2021/09/18 12:46:44;;;;;;;4.53;3.33;;;20.20;99.90;;;;;;5035861;28;20246;-83
2021/09/18 12:49:12;;;;;;;8.30;4.70;;;20.20;99.90;;;;;;5045205;28;20720;-84
2021/09/18 12:51:40;;;;;;;3.70;2.80;;;20.50;99.90;;;;;;5044366;28;20218;-82
2021/09/18 12:54:14;;;;;;;6.60;3.60;;;20.60;99.90;;;;;;5044811;28;20192;-84
2021/09/18 12:56:40;;;;;;;4.57;3.40;;;20.60;99.90;;;;;;5042392;28;20217;-83
2021/09/18 12:59:05;;;;;;;7.47;3.87;;;20.40;99.90;;;;;;5027681;28;20582;-82